createdAt,value
2018-05-03T00:02:10.869Z,2.67
2018-05-03T00:04:40.098Z,2.30
2018-05-03T00:07:14.219Z,3.07
2018-05-03T00:09:43.203Z,4.40
2018-05-03T00:12:19.278Z,3.57
2018-05-03T00:14:48.382Z,3.97
2018-05-03T00:17:17.573Z,2.10
2018-05-03T00:19:47.530Z,3.23
2018-05-03T00:22:19.690Z,2.53
2018-05-03T00:24:49.095Z,1.93
2018-05-03T00:27:21.268Z,2.83
2018-05-03T00:29:50.150Z,4.37
2018-05-03T00:32:26.046Z,1.90
2018-05-03T00:34:55.162Z,2.60
2018-05-03T00:37:25.616Z,2.60
2018-05-03T00:39:54.563Z,3.60
2018-05-03T00:42:27.597Z,3.77
2018-05-03T00:44:56.513Z,4.00
2018-05-03T00:47:29.478Z,3.63
2018-05-03T00:49:58.903Z,3.50
2018-05-03T00:52:31.581Z,3.33
2018-05-03T00:55:00.517Z,3.80
2018-05-03T00:57:34.356Z,4.10
2018-05-03T01:00:03.525Z,4.40
2018-05-03T01:02:40.166Z,3.47
2018-05-03T01:05:10.115Z,3.77
2018-05-03T01:07:38.896Z,4.27
2018-05-03T01:10:07.795Z,3.70
2018-05-03T01:12:40.590Z,3.93
2018-05-03T01:15:09.793Z,4.60
2018-05-03T01:17:46.385Z,4.70
2018-05-03T01:20:15.665Z,5.30
2018-05-03T01:22:45.445Z,4.97
2018-05-03T01:25:14.344Z,5.00
2018-05-03T01:27:50.948Z,5.43
2018-05-03T01:30:19.688Z,4.40
2018-05-03T01:32:51.615Z,5.33
2018-05-03T01:36:31.684Z,4.43
2018-05-03T01:39:01.294Z,4.43
2018-05-03T01:41:30.340Z,4.27
2018-05-03T01:43:59.489Z,4.73
2018-05-03T01:46:28.490Z,3.90
2018-05-03T01:48:58.386Z,4.13
2018-05-03T01:51:27.913Z,3.93
2018-05-03T01:54:05.644Z,3.73
2018-05-03T01:56:34.594Z,3.60
2018-05-03T01:59:03.396Z,3.87
2018-05-03T02:01:32.473Z,4.73
2018-05-03T02:04:06.036Z,3.57
2018-05-03T02:06:34.893Z,3.50
2018-05-03T02:09:12.412Z,4.30
2018-05-03T02:11:41.585Z,4.13
2018-05-03T02:14:14.969Z,4.93
2018-05-03T02:16:43.865Z,3.83
2018-05-03T02:19:16.633Z,3.93
2018-05-03T02:21:46.265Z,4.63
2018-05-03T02:24:18.668Z,5.83
2018-05-03T02:26:47.722Z,4.60
2018-05-03T02:29:20.204Z,4.43
2018-05-03T02:31:48.947Z,4.63
2018-05-03T02:34:22.442Z,5.33
2018-05-03T02:36:51.477Z,6.60
2018-05-03T02:39:24.364Z,6.67
2018-05-03T02:41:53.384Z,6.47
2018-05-03T02:44:26.011Z,6.90
2018-05-03T02:46:55.264Z,7.60
2018-05-03T02:49:27.955Z,7.10
2018-05-03T02:51:56.776Z,7.77
2018-05-03T02:54:33.316Z,8.23
2018-05-03T02:57:11.653Z,8.90
2018-05-03T03:00:59.390Z,9.27
2018-05-03T03:07:27.600Z,9.17
2018-05-03T03:10:02.311Z,10.10
2018-05-03T03:14:45.127Z,10.70
2018-05-03T03:17:28.967Z,9.27
2018-05-03T03:20:06.496Z,10.73
2018-05-03T03:27:07.131Z,10.90
2018-05-03T03:33:58.590Z,15.07
2018-05-03T03:36:38.027Z,15.37
2018-05-03T03:39:19.000Z,17.03
2018-05-03T03:41:53.158Z,17.97
2018-05-03T03:44:33.429Z,18.00
2018-05-03T03:47:02.542Z,17.93
2018-05-03T03:49:31.296Z,19.07
2018-05-03T03:52:00.374Z,19.03
2018-05-03T03:54:29.136Z,19.93
2018-05-03T03:57:05.830Z,20.03
2018-05-03T03:59:35.038Z,17.90
2018-05-03T04:02:06.524Z,17.97
2018-05-03T04:04:35.275Z,18.57
2018-05-03T04:07:08.336Z,19.27
2018-05-03T04:09:37.248Z,18.87
2018-05-03T04:12:11.324Z,17.83
2018-05-03T04:14:40.334Z,18.93
2018-05-03T04:17:16.178Z,21.30
2018-05-03T04:20:13.820Z,18.37
2018-05-03T04:22:53.666Z,19.13
2018-05-03T04:25:34.672Z,19.63
2018-05-03T04:28:03.373Z,18.07
2018-05-03T04:30:32.112Z,19.53
2018-05-03T04:33:02.165Z,17.87
2018-05-03T04:35:31.032Z,16.53
2018-05-03T04:37:59.836Z,18.83
2018-05-03T04:40:28.905Z,14.27
2018-05-03T04:42:57.698Z,15.50
2018-05-03T04:45:26.444Z,16.77
2018-05-03T04:47:56.306Z,15.30
2018-05-03T04:50:29.066Z,16.03
2018-05-03T04:52:57.905Z,15.93
2018-05-03T04:55:30.607Z,14.87
2018-05-03T04:57:59.501Z,15.07
2018-05-03T05:00:36.168Z,12.90
2018-05-03T05:03:05.957Z,12.50
2018-05-03T05:05:35.896Z,14.97
2018-05-03T05:08:04.763Z,16.57
2018-05-03T05:10:37.001Z,13.80
2018-05-03T05:13:05.875Z,13.80
2018-05-03T05:15:42.384Z,12.97
2018-05-03T05:18:12.230Z,12.63
2018-05-03T05:20:41.822Z,11.97
2018-05-03T05:23:11.417Z,15.53
2018-05-03T05:25:47.671Z,14.20
2018-05-03T05:28:16.459Z,11.87
2018-05-03T05:30:46.828Z,12.27
2018-05-03T05:33:15.865Z,10.67
2018-05-03T05:35:52.272Z,10.20
2018-05-03T05:38:21.982Z,9.70
2018-05-03T05:40:51.902Z,10.53
2018-05-03T05:43:21.920Z,10.77
2018-05-03T05:45:54.952Z,7.53
2018-05-03T05:48:23.932Z,8.50
2018-05-03T05:51:00.775Z,9.30
2018-05-03T05:53:29.891Z,12.43
2018-05-03T05:56:00.776Z,11.03
2018-05-03T05:58:29.580Z,9.63
2018-05-03T06:01:02.435Z,11.33
2018-05-03T06:03:31.268Z,7.67
2018-05-03T06:06:07.516Z,7.63
2018-05-03T06:08:37.344Z,8.10
2018-05-03T06:11:07.258Z,9.47
2018-05-03T06:13:36.076Z,10.90
2018-05-03T06:16:12.564Z,7.87
2018-05-03T06:18:41.407Z,8.47
2018-05-03T06:21:14.260Z,8.00
2018-05-03T06:23:44.925Z,8.80
2018-05-03T06:26:15.239Z,6.87
2018-05-03T06:28:44.243Z,7.13
2018-05-03T06:31:21.297Z,12.80
2018-05-03T06:33:50.116Z,8.20
2018-05-03T06:36:20.490Z,8.20
2018-05-03T06:38:49.666Z,12.53
2018-05-03T06:41:21.978Z,8.13
2018-05-03T06:43:51.073Z,9.97
2018-05-03T06:46:25.161Z,6.73
2018-05-03T06:48:55.378Z,9.60
2018-05-03T06:51:26.509Z,10.70
2018-05-03T06:53:55.635Z,11.17
2018-05-03T06:56:32.630Z,6.27
2018-05-03T06:59:01.414Z,7.63
2018-05-03T07:01:31.373Z,7.33
2018-05-03T07:04:00.247Z,5.47
2018-05-03T07:06:33.434Z,7.87
2018-05-03T07:09:02.323Z,7.47
2018-05-03T07:11:35.521Z,6.13
2018-05-03T07:14:04.338Z,5.33
2018-05-03T07:16:37.525Z,5.60
2018-05-03T07:19:06.713Z,5.73
2018-05-03T07:21:43.419Z,5.80
2018-05-03T07:24:12.350Z,7.27
2018-05-03T07:26:42.850Z,4.57
2018-05-03T07:29:13.036Z,5.07
2018-05-03T07:31:45.199Z,7.47
2018-05-03T07:34:14.008Z,9.23
2018-05-03T07:36:49.963Z,7.80
2018-05-03T07:39:20.008Z,6.20
2018-05-03T07:41:50.941Z,6.23
2018-05-03T07:44:19.812Z,6.80
2018-05-03T07:46:53.116Z,8.73
2018-05-03T07:49:22.072Z,6.23
2018-05-03T07:51:59.011Z,7.93
2018-05-03T07:54:28.422Z,3.73
2018-05-03T07:56:58.148Z,3.97
2018-05-03T07:59:27.423Z,5.00
2018-05-03T08:02:03.611Z,2.37
2018-05-03T08:04:33.223Z,4.80
2018-05-03T08:07:04.017Z,5.13
2018-05-03T08:09:33.193Z,5.10
2018-05-03T08:12:06.547Z,7.30
2018-05-03T08:14:35.425Z,6.03
2018-05-03T08:17:11.943Z,7.87
2018-05-03T08:19:40.921Z,6.43
2018-05-03T08:22:13.082Z,4.23
2018-05-03T08:24:42.799Z,6.67
2018-05-03T08:27:14.850Z,6.13
2018-05-03T08:29:43.742Z,5.73
2018-05-03T08:32:17.404Z,6.17
2018-05-03T08:34:46.522Z,5.60
2018-05-03T08:37:19.271Z,6.43
2018-05-03T08:39:49.416Z,7.03
2018-05-03T08:42:21.498Z,4.17
2018-05-03T08:44:50.370Z,4.57
2018-05-03T08:47:24.225Z,10.50
2018-05-03T08:49:53.158Z,5.90
2018-05-03T08:52:25.809Z,5.20
2018-05-03T08:54:54.911Z,5.20
2018-05-03T08:57:27.455Z,5.27
2018-05-03T08:59:57.053Z,7.10
2018-05-03T09:02:30.219Z,7.33
2018-05-03T09:04:59.016Z,3.03
2018-05-03T09:07:31.706Z,4.17
2018-05-03T09:10:01.355Z,5.90
2018-05-03T09:12:33.630Z,5.70
2018-05-03T09:15:02.501Z,3.57
2018-05-03T09:17:37.554Z,7.37
2018-05-03T09:20:06.335Z,3.83
2018-05-03T09:22:38.692Z,4.00
2018-05-03T09:25:07.644Z,6.03
2018-05-03T09:27:44.393Z,5.10
2018-05-03T09:30:15.218Z,6.43
2018-05-03T09:32:44.179Z,4.80
2018-05-03T09:35:13.201Z,5.73
2018-05-03T09:37:45.978Z,6.90
2018-05-03T09:40:14.808Z,5.30
2018-05-03T09:42:48.513Z,7.53
2018-05-03T09:45:17.394Z,5.77
2018-05-03T09:47:51.279Z,10.70
2018-05-03T09:50:21.238Z,7.47
2018-05-03T09:52:53.682Z,3.43
2018-05-03T09:55:22.580Z,6.60
2018-05-03T09:57:55.884Z,3.57
2018-05-03T10:00:24.977Z,6.60
2018-05-03T10:03:01.133Z,7.63
2018-05-03T10:05:30.623Z,4.80
2018-05-03T10:08:01.147Z,6.67
2018-05-03T10:10:30.054Z,6.10
2018-05-03T10:13:03.293Z,4.63
2018-05-03T10:15:32.103Z,4.80
2018-05-03T10:18:06.905Z,5.80
2018-05-03T10:20:37.085Z,8.30
2018-05-03T10:23:08.700Z,5.53
2018-05-03T10:25:37.646Z,4.37
2018-05-03T10:28:15.431Z,4.77
2018-05-03T10:30:45.183Z,5.93
2018-05-03T10:33:15.431Z,6.30
2018-05-03T10:35:50.466Z,5.53
2018-05-03T10:38:32.533Z,5.07
2018-05-03T10:41:01.672Z,6.43
2018-05-03T10:43:30.665Z,4.03
2018-05-03T10:45:59.537Z,5.53
2018-05-03T10:48:28.763Z,5.97
2018-05-03T10:50:57.641Z,4.57
2018-05-03T10:53:26.488Z,3.87
2018-05-03T10:55:55.584Z,5.40
2018-05-03T10:58:25.215Z,4.70
2018-05-03T11:00:54.069Z,6.57
2018-05-03T11:05:54.876Z,6.40
2018-05-03T11:08:31.637Z,3.70
2018-05-03T11:11:02.993Z,8.10
2018-05-03T11:16:12.721Z,4.13
2018-05-03T11:18:41.454Z,6.17
2018-05-03T11:21:11.096Z,4.77
2018-05-03T11:23:40.300Z,6.30
2018-05-03T11:26:10.376Z,5.13
2018-05-03T11:28:39.230Z,6.30
2018-05-03T11:33:41.870Z,6.23
2018-05-03T11:36:11.503Z,3.80
2018-05-03T11:38:43.679Z,2.87
2018-05-03T11:41:12.488Z,5.83
2018-05-03T11:43:44.860Z,3.27
2018-05-03T11:46:13.950Z,4.03
2018-05-03T11:48:50.713Z,2.87
2018-05-03T11:51:19.556Z,4.57
2018-05-03T11:53:50.075Z,4.17
2018-05-03T11:56:18.882Z,2.93
2018-05-03T11:58:52.774Z,6.87
2018-05-03T12:01:21.787Z,2.33
2018-05-03T12:03:55.041Z,5.37
2018-05-03T12:06:24.138Z,3.00
2018-05-03T12:09:00.508Z,4.77
2018-05-03T12:11:29.270Z,6.63
2018-05-03T12:14:01.317Z,2.77
2018-05-03T12:16:30.465Z,3.97
2018-05-03T12:19:02.767Z,2.63
2018-05-03T12:21:32.623Z,3.87
2018-05-03T12:24:05.204Z,3.57
2018-05-03T12:26:34.429Z,2.33
2018-05-03T12:29:10.971Z,7.27
2018-05-03T12:31:40.107Z,2.20
2018-05-03T12:34:13.395Z,4.27
2018-05-03T12:36:44.288Z,6.30
2018-05-03T12:39:14.696Z,3.03
2018-05-03T12:41:43.940Z,3.07
2018-05-03T12:44:16.921Z,1.67
2018-05-03T12:46:45.887Z,3.40
2018-05-03T12:49:19.892Z,4.77
2018-05-03T12:51:48.829Z,4.57
2018-05-03T12:54:21.589Z,2.90
2018-05-03T12:56:50.800Z,2.80
2018-05-03T12:59:24.224Z,6.73
2018-05-03T13:01:53.617Z,2.13
2018-05-03T13:04:25.955Z,2.17
2018-05-03T13:06:54.851Z,3.47
2018-05-03T13:09:36.537Z,3.23
2018-05-03T13:12:05.682Z,4.27
2018-05-03T13:14:38.594Z,4.00
2018-05-03T13:17:11.427Z,2.50
2018-05-03T13:19:41.944Z,3.73
2018-05-03T13:22:10.940Z,7.33
2018-05-03T13:24:40.506Z,5.03
2018-05-03T13:27:09.320Z,3.73
2018-05-03T13:29:38.218Z,3.83
2018-05-03T13:32:07.833Z,5.43
2018-05-03T13:34:40.614Z,5.77
2018-05-03T13:37:10.283Z,3.03
2018-05-03T13:39:42.454Z,4.00
2018-05-03T13:42:12.367Z,6.07
2018-05-03T13:44:45.023Z,2.93
2018-05-03T13:47:13.836Z,4.33
2018-05-03T13:49:50.659Z,3.80
2018-05-03T13:52:19.553Z,4.13
2018-05-03T13:54:51.761Z,4.10
2018-05-03T13:57:20.993Z,4.37
2018-05-03T13:59:52.500Z,7.50
2018-05-03T14:02:21.392Z,3.23
2018-05-03T14:04:55.375Z,6.50
2018-05-03T14:07:24.269Z,4.83
2018-05-03T14:09:57.534Z,6.30
2018-05-03T14:12:27.361Z,4.57
2018-05-03T14:14:59.361Z,4.57
2018-05-03T14:17:28.181Z,3.50
2018-05-03T14:20:01.902Z,4.87
2018-05-03T14:22:30.808Z,2.97
2018-05-03T14:25:07.848Z,5.53
2018-05-03T14:27:37.661Z,4.60
2018-05-03T14:30:07.056Z,5.80
2018-05-03T14:32:36.137Z,4.97
2018-05-03T14:35:13.982Z,3.33
2018-05-03T14:37:44.450Z,4.83
2018-05-03T14:42:54.353Z,2.73
2018-05-03T14:45:24.743Z,6.63
2018-05-03T14:47:55.057Z,2.57
2018-05-03T14:50:24.344Z,2.70
2018-05-03T14:52:53.243Z,4.63
2018-05-03T14:55:23.475Z,2.97
2018-05-03T14:57:52.340Z,2.60
2018-05-03T15:00:21.922Z,5.47
2018-05-03T15:02:51.420Z,3.70
2018-05-03T15:05:26.748Z,2.30
2018-05-03T15:07:55.685Z,4.30
2018-05-03T15:10:27.109Z,2.57
2018-05-03T15:12:59.345Z,3.83
2018-05-03T15:15:29.723Z,5.50
2018-05-03T15:17:58.614Z,5.53
2018-05-03T15:20:31.439Z,3.47
2018-05-03T15:23:00.692Z,3.10
2018-05-03T15:25:33.067Z,3.20
2018-05-03T15:28:01.981Z,3.10
2018-05-03T15:30:34.213Z,3.17
2018-05-03T15:33:03.063Z,4.60
2018-05-03T15:35:36.043Z,3.93
2018-05-03T15:38:05.216Z,2.97
2018-05-03T15:40:41.272Z,3.07
2018-05-03T15:43:10.291Z,3.13
2018-05-03T15:45:40.412Z,3.40
2018-05-03T15:48:10.060Z,3.20
2018-05-03T15:50:43.473Z,3.00
2018-05-03T15:53:12.340Z,3.00
2018-05-03T15:55:45.867Z,4.93
2018-05-03T15:58:15.874Z,3.83
2018-05-03T16:00:52.139Z,3.20
2018-05-03T16:03:21.703Z,2.93
2018-05-03T16:05:50.930Z,2.73
2018-05-03T16:08:20.099Z,3.10
2018-05-03T16:10:56.528Z,3.63
2018-05-03T16:13:25.447Z,3.50
2018-05-03T16:15:57.970Z,2.93
2018-05-03T16:18:26.780Z,4.33
2018-05-03T16:20:59.527Z,5.10
2018-05-03T16:23:28.758Z,2.90
2018-05-03T16:26:02.771Z,2.50
2018-05-03T16:28:31.683Z,2.77
2018-05-03T16:31:04.434Z,3.63
2018-05-03T16:33:33.302Z,5.67
2018-05-03T16:36:09.936Z,3.97
2018-05-03T16:38:39.970Z,4.10
2018-05-03T16:41:12.414Z,3.83
2018-05-03T16:43:42.087Z,3.30
2018-05-03T16:46:14.939Z,5.00
2018-05-03T16:48:43.880Z,4.37
2018-05-03T16:51:16.202Z,5.37
2018-05-03T16:53:45.655Z,3.97
2018-05-03T16:56:19.111Z,2.93
2018-05-03T16:58:48.140Z,3.30
2018-05-03T17:01:22.287Z,4.07
2018-05-03T17:03:52.084Z,2.93
2018-05-03T17:06:24.480Z,3.77
2018-05-03T17:08:53.710Z,4.50
2018-05-03T17:11:25.627Z,5.07
2018-05-03T17:13:55.215Z,7.10
2018-05-03T17:16:36.844Z,2.33
2018-05-03T17:19:05.780Z,2.43
2018-05-03T17:21:34.744Z,4.50
2018-05-03T17:24:03.995Z,2.60
2018-05-03T17:26:32.919Z,2.20
2018-05-03T17:29:01.857Z,2.40
2018-05-03T17:31:33.249Z,2.13
2018-05-03T17:34:02.187Z,3.13
2018-05-03T17:36:36.742Z,4.07
2018-05-03T17:39:07.902Z,1.83
2018-05-03T17:41:40.327Z,1.87
2018-05-03T17:44:09.200Z,3.33
2018-05-03T17:46:41.719Z,2.10
2018-05-03T17:49:10.611Z,2.60
2018-05-03T17:51:43.830Z,2.40
2018-05-03T17:54:13.017Z,2.20
2018-05-03T17:56:49.605Z,2.83
2018-05-03T17:59:18.533Z,6.10
2018-05-03T18:01:48.425Z,2.90
2018-05-03T18:04:17.588Z,2.37
2018-05-03T18:06:54.507Z,2.50
2018-05-03T18:09:25.180Z,2.37
2018-05-03T18:11:54.929Z,3.03
2018-05-03T18:14:23.839Z,6.47
2018-05-03T18:16:55.908Z,2.47
2018-05-03T18:19:24.860Z,2.87
2018-05-03T18:22:00.826Z,3.03
2018-05-03T18:24:30.152Z,3.33
2018-05-03T18:27:00.255Z,3.70
2018-05-03T18:29:30.119Z,2.23
2018-05-03T18:32:03.130Z,2.70
2018-05-03T18:34:32.024Z,5.00
2018-05-03T18:37:08.035Z,3.80
2018-05-03T18:39:37.305Z,4.37
2018-05-03T18:42:09.522Z,2.57
2018-05-03T18:44:39.255Z,4.10
2018-05-03T18:47:12.973Z,4.23
2018-05-03T18:49:42.031Z,5.20
2018-05-03T18:52:14.934Z,4.53
2018-05-03T18:54:44.310Z,3.43
2018-05-03T18:57:17.392Z,2.70
2018-05-03T18:59:46.326Z,4.40
2018-05-03T19:02:17.836Z,3.30
2018-05-03T19:04:46.807Z,4.87
2018-05-03T19:07:19.375Z,7.40
2018-05-03T19:09:49.563Z,13.47
2018-05-03T19:12:21.746Z,6.17
2018-05-03T19:14:50.840Z,3.63
2018-05-03T19:17:27.725Z,4.13
2018-05-03T19:19:56.577Z,3.63
2018-05-03T19:22:25.920Z,3.57
2018-05-03T19:24:56.236Z,3.13
2018-05-03T19:27:29.055Z,3.17
2018-05-03T19:29:58.772Z,2.80
2018-05-03T19:32:30.144Z,2.43
2018-05-03T19:34:59.055Z,5.07
2018-05-03T19:37:31.904Z,4.23
2018-05-03T19:40:00.854Z,3.93
2018-05-03T19:42:37.977Z,6.50
2018-05-03T19:45:07.669Z,7.23
2018-05-03T19:47:36.554Z,7.40
2018-05-03T19:50:05.471Z,5.63
2018-05-03T19:52:39.672Z,5.43
2018-05-03T19:55:08.605Z,4.80
2018-05-03T19:57:40.881Z,5.20
2018-05-03T20:00:10.883Z,2.63
2018-05-03T20:02:42.762Z,7.30
2018-05-03T20:05:11.670Z,3.90
2018-05-03T20:07:46.212Z,5.43
2018-05-03T20:10:15.928Z,3.60
2018-05-03T20:12:47.134Z,3.40
2018-05-03T20:15:16.802Z,7.40
2018-05-03T20:17:49.866Z,2.83
2018-05-03T20:20:19.594Z,4.63
2018-05-03T20:22:53.816Z,4.90
2018-05-03T20:25:22.891Z,3.77
2018-05-03T20:27:56.418Z,5.87
2018-05-03T20:30:26.032Z,3.63
2018-05-03T20:32:58.868Z,3.47
2018-05-03T20:35:28.535Z,2.97
2018-05-03T20:37:59.118Z,2.83
2018-05-03T20:40:28.825Z,4.23
2018-05-03T20:43:01.673Z,2.80
2018-05-03T20:45:30.570Z,11.57
2018-05-03T20:48:04.811Z,4.37
2018-05-03T20:50:33.722Z,3.63
2018-05-03T20:53:09.830Z,4.20
2018-05-03T20:55:39.042Z,4.17
2018-05-03T20:58:11.679Z,4.40
2018-05-03T21:00:41.716Z,2.73
2018-05-03T21:03:18.455Z,3.80
2018-05-03T21:05:48.080Z,3.30
2018-05-03T21:08:17.002Z,4.80
2018-05-03T21:10:46.255Z,3.97
2018-05-03T21:13:16.949Z,5.30
2018-05-03T21:15:47.065Z,6.60
2018-05-03T21:18:19.916Z,5.27
2018-05-03T21:20:49.209Z,4.70
2018-05-03T21:23:20.645Z,4.50
2018-05-03T21:25:50.982Z,5.57
2018-05-03T21:28:23.246Z,3.70
2018-05-03T21:30:52.369Z,4.03
2018-05-03T21:33:33.986Z,3.27
2018-05-03T21:36:03.324Z,5.63
2018-05-03T21:38:32.313Z,4.90
2018-05-03T21:41:01.410Z,4.20
2018-05-03T21:43:30.570Z,4.27
2018-05-03T21:46:00.022Z,5.27
2018-05-03T21:48:31.917Z,5.07
2018-05-03T21:51:00.911Z,3.93
2018-05-03T21:53:36.867Z,5.17
2018-05-03T21:56:06.783Z,4.67
2018-05-03T21:58:36.675Z,6.37
2018-05-03T22:01:07.501Z,3.80
2018-05-03T22:06:14.341Z,5.47
2018-05-03T22:08:44.926Z,4.40
2018-05-03T22:11:14.544Z,4.43
2018-05-03T22:13:44.275Z,5.13
2018-05-03T22:16:14.546Z,3.03
2018-05-03T22:18:45.370Z,3.93
2018-05-03T22:28:00.912Z,7.67
2018-05-03T22:30:32.158Z,3.10
2018-05-03T22:33:01.421Z,5.70
2018-05-03T22:35:30.268Z,6.77
2018-05-03T22:37:59.485Z,6.80
2018-05-03T22:40:29.225Z,5.13
2018-05-03T22:42:58.100Z,4.80
2018-05-03T22:45:27.229Z,3.33
2018-05-03T22:48:01.165Z,6.27
2018-05-03T22:50:30.070Z,3.97
2018-05-03T22:53:03.069Z,3.80
2018-05-03T22:55:31.960Z,7.97
2018-05-03T22:58:05.885Z,3.37
2018-05-03T23:00:35.528Z,3.03
2018-05-03T23:03:08.643Z,4.30
2018-05-03T23:05:38.065Z,4.63
2018-05-03T23:08:10.963Z,3.67
2018-05-03T23:10:40.825Z,6.47
2018-05-03T23:13:13.342Z,6.97
2018-05-03T23:15:42.781Z,5.53
2018-05-03T23:18:16.186Z,6.13
2018-05-03T23:20:45.163Z,4.07
2018-05-03T23:23:23.150Z,5.10
2018-05-03T23:25:52.210Z,3.50
2018-05-03T23:28:22.001Z,7.60
2018-05-03T23:30:51.112Z,2.63
2018-05-03T23:33:21.673Z,3.07
2018-05-03T23:35:51.469Z,4.63
2018-05-03T23:38:24.107Z,4.20
2018-05-03T23:40:53.256Z,4.60
2018-05-03T23:43:29.518Z,3.60
2018-05-03T23:45:58.593Z,5.17
2018-05-03T23:48:28.201Z,2.90
2018-05-03T23:50:57.010Z,5.83
2018-05-03T23:53:30.424Z,4.57
2018-05-03T23:55:59.218Z,3.67
2018-05-03T23:58:35.744Z,4.97
